sensor_id;sensor_type;location;lat;lon;timestamp;P1;durP1;ratioP1;P2;durP2;ratioP2
14847;SDS011;7516;43.570;1.448;2023-04-03T00:02:18;4.47;;;1.83;;
14847;SDS011;7516;43.570;1.448;2023-04-03T00:04:45;3.77;;;2.20;;
14847;SDS011;7516;43.570;1.448;2023-04-03T00:07:13;3.13;;;1.77;;
14847;SDS011;7516;43.570;1.448;2023-04-03T00:09:40;5.07;;;2.10;;
14847;SDS011;7516;43.570;1.448;2023-04-03T00:12:09;3.63;;;1.93;;
14847;SDS011;7516;43.570;1.448;2023-04-03T00:14:37;3.50;;;1.80;;
14847;SDS011;7516;43.570;1.448;2023-04-03T00:17:04;3.67;;;1.97;;
14847;SDS011;7516;43.570;1.448;2023-04-03T00:19:32;4.53;;;1.87;;
14847;SDS011;7516;43.570;1.448;2023-04-03T00:22:00;4.47;;;2.17;;
14847;SDS011;7516;43.570;1.448;2023-04-03T00:24:27;5.60;;;1.97;;
14847;SDS011;7516;43.570;1.448;2023-04-03T00:26:54;4.43;;;2.10;;
14847;SDS011;7516;43.570;1.448;2023-04-03T00:29:23;2.90;;;1.93;;
14847;SDS011;7516;43.570;1.448;2023-04-03T00:31:51;3.10;;;1.90;;
14847;SDS011;7516;43.570;1.448;2023-04-03T00:34:18;2.63;;;1.90;;
14847;SDS011;7516;43.570;1.448;2023-04-03T00:36:46;3.07;;;1.90;;
14847;SDS011;7516;43.570;1.448;2023-04-03T00:39:13;6.87;;;2.20;;
14847;SDS011;7516;43.570;1.448;2023-04-03T00:41:41;3.57;;;1.90;;
14847;SDS011;7516;43.570;1.448;2023-04-03T00:44:19;5.43;;;2.07;;
14847;SDS011;7516;43.570;1.448;2023-04-03T00:46:48;4.20;;;1.87;;
14847;SDS011;7516;43.570;1.448;2023-04-03T00:49:16;4.03;;;2.30;;
14847;SDS011;7516;43.570;1.448;2023-04-03T00:51:43;4.37;;;1.97;;
14847;SDS011;7516;43.570;1.448;2023-04-03T00:54:11;4.03;;;2.20;;
14847;SDS011;7516;43.570;1.448;2023-04-03T00:56:39;4.53;;;1.80;;
14847;SDS011;7516;43.570;1.448;2023-04-03T00:59:08;4.87;;;2.23;;
14847;SDS011;7516;43.570;1.448;2023-04-03T01:01:41;3.77;;;2.00;;
14847;SDS011;7516;43.570;1.448;2023-04-03T01:04:24;4.03;;;1.90;;
14847;SDS011;7516;43.570;1.448;2023-04-03T01:06:53;3.97;;;2.10;;
14847;SDS011;7516;43.570;1.448;2023-04-03T01:09:25;3.20;;;1.70;;
14847;SDS011;7516;43.570;1.448;2023-04-03T01:11:54;3.80;;;2.23;;
14847;SDS011;7516;43.570;1.448;2023-04-03T01:14:38;2.67;;;1.70;;
14847;SDS011;7516;43.570;1.448;2023-04-03T01:17:20;3.17;;;2.20;;
14847;SDS011;7516;43.570;1.448;2023-04-03T01:19:56;4.43;;;1.87;;
14847;SDS011;7516;43.570;1.448;2023-04-03T01:22:34;4.60;;;1.87;;
14847;SDS011;7516;43.570;1.448;2023-04-03T01:25:07;3.57;;;2.10;;
14847;SDS011;7516;43.570;1.448;2023-04-03T01:27:35;3.37;;;2.23;;
14847;SDS011;7516;43.570;1.448;2023-04-03T01:30:03;2.73;;;1.93;;
14847;SDS011;7516;43.570;1.448;2023-04-03T01:32:33;4.80;;;1.93;;
14847;SDS011;7516;43.570;1.448;2023-04-03T01:35:00;5.37;;;2.27;;
14847;SDS011;7516;43.570;1.448;2023-04-03T01:37:28;3.23;;;2.00;;
14847;SDS011;7516;43.570;1.448;2023-04-03T01:39:55;2.77;;;2.10;;
14847;SDS011;7516;43.570;1.448;2023-04-03T01:42:23;3.50;;;2.10;;
14847;SDS011;7516;43.570;1.448;2023-04-03T01:44:50;2.80;;;2.00;;
14847;SDS011;7516;43.570;1.448;2023-04-03T01:47:18;3.57;;;1.93;;
14847;SDS011;7516;43.570;1.448;2023-04-03T01:49:47;3.63;;;2.10;;
14847;SDS011;7516;43.570;1.448;2023-04-03T01:52:14;2.33;;;1.90;;
14847;SDS011;7516;43.570;1.448;2023-04-03T01:54:42;4.03;;;2.30;;
14847;SDS011;7516;43.570;1.448;2023-04-03T01:57:09;4.03;;;2.17;;
14847;SDS011;7516;43.570;1.448;2023-04-03T01:59:38;5.10;;;2.40;;
14847;SDS011;7516;43.570;1.448;2023-04-03T02:02:06;3.13;;;2.00;;
14847;SDS011;7516;43.570;1.448;2023-04-03T02:04:33;2.97;;;2.00;;
14847;SDS011;7516;43.570;1.448;2023-04-03T02:07:02;3.53;;;2.20;;
14847;SDS011;7516;43.570;1.448;2023-04-03T02:09:30;5.53;;;2.10;;
14847;SDS011;7516;43.570;1.448;2023-04-03T02:11:57;3.30;;;2.03;;
14847;SDS011;7516;43.570;1.448;2023-04-03T02:14:25;2.80;;;2.47;;
14847;SDS011;7516;43.570;1.448;2023-04-03T02:16:52;3.53;;;2.10;;
14847;SDS011;7516;43.570;1.448;2023-04-03T02:19:20;4.67;;;2.30;;
14847;SDS011;7516;43.570;1.448;2023-04-03T02:21:47;2.90;;;2.00;;
14847;SDS011;7516;43.570;1.448;2023-04-03T02:24:16;3.93;;;2.00;;
14847;SDS011;7516;43.570;1.448;2023-04-03T02:26:44;3.83;;;1.93;;
14847;SDS011;7516;43.570;1.448;2023-04-03T02:29:11;4.77;;;2.00;;
14847;SDS011;7516;43.570;1.448;2023-04-03T02:31:39;4.00;;;2.00;;
14847;SDS011;7516;43.570;1.448;2023-04-03T02:34:07;4.27;;;2.27;;
14847;SDS011;7516;43.570;1.448;2023-04-03T02:36:34;4.13;;;2.50;;
14847;SDS011;7516;43.570;1.448;2023-04-03T02:39:02;2.87;;;2.10;;
14847;SDS011;7516;43.570;1.448;2023-04-03T02:41:31;5.20;;;2.30;;
14847;SDS011;7516;43.570;1.448;2023-04-03T02:44:00;4.60;;;2.33;;
14847;SDS011;7516;43.570;1.448;2023-04-03T02:46:28;4.07;;;2.00;;
14847;SDS011;7516;43.570;1.448;2023-04-03T02:48:55;3.57;;;2.47;;
14847;SDS011;7516;43.570;1.448;2023-04-03T02:51:23;5.03;;;2.30;;
14847;SDS011;7516;43.570;1.448;2023-04-03T02:53:50;3.40;;;2.37;;
14847;SDS011;7516;43.570;1.448;2023-04-03T02:56:18;5.43;;;2.40;;
14847;SDS011;7516;43.570;1.448;2023-04-03T02:58:47;4.33;;;2.27;;
14847;SDS011;7516;43.570;1.448;2023-04-03T03:01:15;3.30;;;2.17;;
14847;SDS011;7516;43.570;1.448;2023-04-03T03:03:42;4.90;;;2.53;;
14847;SDS011;7516;43.570;1.448;2023-04-03T03:06:10;4.57;;;2.50;;
14847;SDS011;7516;43.570;1.448;2023-04-03T03:08:39;2.53;;;2.17;;
14847;SDS011;7516;43.570;1.448;2023-04-03T03:11:07;3.87;;;2.40;;
14847;SDS011;7516;43.570;1.448;2023-04-03T03:13:35;3.37;;;2.10;;
14847;SDS011;7516;43.570;1.448;2023-04-03T03:16:05;2.87;;;2.23;;
14847;SDS011;7516;43.570;1.448;2023-04-03T03:18:32;3.93;;;2.30;;
14847;SDS011;7516;43.570;1.448;2023-04-03T03:21:01;3.60;;;2.13;;
14847;SDS011;7516;43.570;1.448;2023-04-03T03:23:29;4.40;;;2.37;;
14847;SDS011;7516;43.570;1.448;2023-04-03T03:25:58;3.67;;;2.30;;
14847;SDS011;7516;43.570;1.448;2023-04-03T03:28:27;2.87;;;2.37;;
14847;SDS011;7516;43.570;1.448;2023-04-03T03:30:55;4.53;;;2.60;;
14847;SDS011;7516;43.570;1.448;2023-04-03T03:33:24;3.93;;;2.50;;
14847;SDS011;7516;43.570;1.448;2023-04-03T03:35:52;3.87;;;2.57;;
14847;SDS011;7516;43.570;1.448;2023-04-03T03:38:20;3.03;;;2.30;;
14847;SDS011;7516;43.570;1.448;2023-04-03T03:40:49;3.77;;;2.40;;
14847;SDS011;7516;43.570;1.448;2023-04-03T03:43:17;4.27;;;2.33;;
14847;SDS011;7516;43.570;1.448;2023-04-03T03:45:46;2.97;;;2.60;;
14847;SDS011;7516;43.570;1.448;2023-04-03T03:48:17;4.47;;;2.07;;
14847;SDS011;7516;43.570;1.448;2023-04-03T03:50:46;3.63;;;2.43;;
14847;SDS011;7516;43.570;1.448;2023-04-03T03:53:14;3.27;;;2.47;;
14847;SDS011;7516;43.570;1.448;2023-04-03T03:55:42;2.80;;;2.30;;
14847;SDS011;7516;43.570;1.448;2023-04-03T03:58:09;4.50;;;2.63;;
14847;SDS011;7516;43.570;1.448;2023-04-03T04:00:37;4.13;;;2.53;;
14847;SDS011;7516;43.570;1.448;2023-04-03T04:03:04;2.50;;;2.20;;
14847;SDS011;7516;43.570;1.448;2023-04-03T04:05:32;3.07;;;2.60;;
14847;SDS011;7516;43.570;1.448;2023-04-03T04:08:00;3.80;;;2.87;;
14847;SDS011;7516;43.570;1.448;2023-04-03T04:10:28;4.63;;;2.40;;
14847;SDS011;7516;43.570;1.448;2023-04-03T04:12:55;2.43;;;2.00;;
14847;SDS011;7516;43.570;1.448;2023-04-03T04:15:23;3.53;;;2.20;;
14847;SDS011;7516;43.570;1.448;2023-04-03T04:17:53;3.33;;;2.30;;
14847;SDS011;7516;43.570;1.448;2023-04-03T04:20:22;4.53;;;2.47;;
14847;SDS011;7516;43.570;1.448;2023-04-03T04:22:49;2.63;;;2.00;;
14847;SDS011;7516;43.570;1.448;2023-04-03T04:25:18;2.77;;;2.20;;
14847;SDS011;7516;43.570;1.448;2023-04-03T04:27:46;4.13;;;2.50;;
14847;SDS011;7516;43.570;1.448;2023-04-03T04:30:13;2.90;;;2.40;;
14847;SDS011;7516;43.570;1.448;2023-04-03T04:32:42;3.80;;;2.37;;
14847;SDS011;7516;43.570;1.448;2023-04-03T04:35:09;2.87;;;2.50;;
14847;SDS011;7516;43.570;1.448;2023-04-03T04:37:37;3.50;;;2.80;;
14847;SDS011;7516;43.570;1.448;2023-04-03T04:40:05;3.70;;;2.60;;
14847;SDS011;7516;43.570;1.448;2023-04-03T04:42:34;4.37;;;2.23;;
14847;SDS011;7516;43.570;1.448;2023-04-03T04:45:02;3.70;;;2.40;;
14847;SDS011;7516;43.570;1.448;2023-04-03T04:47:30;2.63;;;2.30;;
14847;SDS011;7516;43.570;1.448;2023-04-03T04:49:57;2.20;;;2.00;;
14847;SDS011;7516;43.570;1.448;2023-04-03T04:52:25;3.03;;;2.37;;
14847;SDS011;7516;43.570;1.448;2023-04-03T04:54:53;5.20;;;2.57;;
14847;SDS011;7516;43.570;1.448;2023-04-03T04:57:20;4.40;;;2.63;;
14847;SDS011;7516;43.570;1.448;2023-04-03T04:59:49;3.47;;;2.10;;
14847;SDS011;7516;43.570;1.448;2023-04-03T05:02:17;4.70;;;2.30;;
14847;SDS011;7516;43.570;1.448;2023-04-03T05:04:44;3.50;;;2.43;;
14847;SDS011;7516;43.570;1.448;2023-04-03T05:07:12;2.60;;;2.40;;
14847;SDS011;7516;43.570;1.448;2023-04-03T05:09:39;3.23;;;2.57;;
14847;SDS011;7516;43.570;1.448;2023-04-03T05:12:07;3.00;;;2.70;;
14847;SDS011;7516;43.570;1.448;2023-04-03T05:14:34;4.00;;;2.70;;
14847;SDS011;7516;43.570;1.448;2023-04-03T05:17:03;3.27;;;2.47;;
14847;SDS011;7516;43.570;1.448;2023-04-03T05:19:31;4.30;;;2.77;;
14847;SDS011;7516;43.570;1.448;2023-04-03T05:21:58;3.00;;;2.50;;
14847;SDS011;7516;43.570;1.448;2023-04-03T05:24:26;3.03;;;2.60;;
14847;SDS011;7516;43.570;1.448;2023-04-03T05:26:56;4.03;;;2.80;;
14847;SDS011;7516;43.570;1.448;2023-04-03T05:29:23;5.37;;;2.90;;
14847;SDS011;7516;43.570;1.448;2023-04-03T05:31:51;3.70;;;3.10;;
14847;SDS011;7516;43.570;1.448;2023-04-03T05:34:20;2.67;;;2.40;;
14847;SDS011;7516;43.570;1.448;2023-04-03T05:36:47;5.93;;;2.90;;
14847;SDS011;7516;43.570;1.448;2023-04-03T05:39:15;2.93;;;2.63;;
14847;SDS011;7516;43.570;1.448;2023-04-03T05:41:42;2.63;;;2.33;;
14847;SDS011;7516;43.570;1.448;2023-04-03T05:44:10;4.47;;;3.03;;
14847;SDS011;7516;43.570;1.448;2023-04-03T05:46:37;4.60;;;3.10;;
14847;SDS011;7516;43.570;1.448;2023-04-03T05:49:05;3.10;;;2.80;;
14847;SDS011;7516;43.570;1.448;2023-04-03T05:51:35;3.60;;;2.80;;
14847;SDS011;7516;43.570;1.448;2023-04-03T05:54:06;4.53;;;2.37;;
14847;SDS011;7516;43.570;1.448;2023-04-03T05:56:38;4.73;;;2.70;;
14847;SDS011;7516;43.570;1.448;2023-04-03T05:59:06;5.83;;;2.87;;
14847;SDS011;7516;43.570;1.448;2023-04-03T06:01:33;3.90;;;2.53;;
14847;SDS011;7516;43.570;1.448;2023-04-03T06:04:01;3.80;;;2.20;;
14847;SDS011;7516;43.570;1.448;2023-04-03T06:06:43;5.03;;;2.87;;
14847;SDS011;7516;43.570;1.448;2023-04-03T06:09:13;3.30;;;2.30;;
14847;SDS011;7516;43.570;1.448;2023-04-03T06:11:41;3.67;;;2.47;;
14847;SDS011;7516;43.570;1.448;2023-04-03T06:14:09;4.37;;;3.50;;
14847;SDS011;7516;43.570;1.448;2023-04-03T06:16:37;3.43;;;3.00;;
14847;SDS011;7516;43.570;1.448;2023-04-03T06:19:05;4.23;;;3.10;;
14847;SDS011;7516;43.570;1.448;2023-04-03T06:21:33;5.53;;;3.10;;
14847;SDS011;7516;43.570;1.448;2023-04-03T06:24:02;3.20;;;2.53;;
14847;SDS011;7516;43.570;1.448;2023-04-03T06:26:30;4.07;;;2.63;;
14847;SDS011;7516;43.570;1.448;2023-04-03T06:28:58;5.50;;;2.80;;
14847;SDS011;7516;43.570;1.448;2023-04-03T06:31:30;3.77;;;2.77;;
14847;SDS011;7516;43.570;1.448;2023-04-03T06:33:57;3.23;;;2.73;;
14847;SDS011;7516;43.570;1.448;2023-04-03T06:36:25;3.93;;;2.70;;
14847;SDS011;7516;43.570;1.448;2023-04-03T06:38:53;3.97;;;2.60;;
14847;SDS011;7516;43.570;1.448;2023-04-03T06:41:21;3.53;;;2.60;;
14847;SDS011;7516;43.570;1.448;2023-04-03T06:43:50;4.40;;;2.90;;
14847;SDS011;7516;43.570;1.448;2023-04-03T06:46:19;5.43;;;2.50;;
14847;SDS011;7516;43.570;1.448;2023-04-03T06:48:48;3.53;;;2.67;;
14847;SDS011;7516;43.570;1.448;2023-04-03T06:51:17;4.70;;;2.97;;
14847;SDS011;7516;43.570;1.448;2023-04-03T06:53:46;4.87;;;2.70;;
14847;SDS011;7516;43.570;1.448;2023-04-03T06:56:14;4.20;;;2.67;;
14847;SDS011;7516;43.570;1.448;2023-04-03T06:58:43;6.00;;;3.10;;
14847;SDS011;7516;43.570;1.448;2023-04-03T07:01:13;4.07;;;2.80;;
14847;SDS011;7516;43.570;1.448;2023-04-03T07:03:42;5.43;;;3.33;;
14847;SDS011;7516;43.570;1.448;2023-04-03T07:06:11;3.73;;;2.70;;
14847;SDS011;7516;43.570;1.448;2023-04-03T07:08:40;3.37;;;2.70;;
14847;SDS011;7516;43.570;1.448;2023-04-03T07:11:08;6.10;;;3.33;;
14847;SDS011;7516;43.570;1.448;2023-04-03T07:13:36;6.37;;;3.03;;
14847;SDS011;7516;43.570;1.448;2023-04-03T07:16:07;3.73;;;2.87;;
14847;SDS011;7516;43.570;1.448;2023-04-03T07:18:36;3.63;;;2.60;;
14847;SDS011;7516;43.570;1.448;2023-04-03T07:21:03;3.70;;;2.77;;
14847;SDS011;7516;43.570;1.448;2023-04-03T07:23:34;4.10;;;2.77;;
14847;SDS011;7516;43.570;1.448;2023-04-03T07:26:02;3.13;;;2.73;;
14847;SDS011;7516;43.570;1.448;2023-04-03T07:28:29;5.27;;;2.83;;
14847;SDS011;7516;43.570;1.448;2023-04-03T07:30:59;3.07;;;2.73;;
14847;SDS011;7516;43.570;1.448;2023-04-03T07:33:37;4.17;;;2.73;;
14847;SDS011;7516;43.570;1.448;2023-04-03T07:36:06;4.20;;;2.83;;
14847;SDS011;7516;43.570;1.448;2023-04-03T07:38:35;4.10;;;2.93;;
14847;SDS011;7516;43.570;1.448;2023-04-03T07:41:03;4.33;;;2.90;;
14847;SDS011;7516;43.570;1.448;2023-04-03T07:43:31;3.13;;;2.60;;
14847;SDS011;7516;43.570;1.448;2023-04-03T07:45:59;4.80;;;2.80;;
14847;SDS011;7516;43.570;1.448;2023-04-03T07:48:27;4.13;;;2.60;;
14847;SDS011;7516;43.570;1.448;2023-04-03T07:51:00;3.93;;;2.90;;
14847;SDS011;7516;43.570;1.448;2023-04-03T07:53:28;4.73;;;2.43;;
14847;SDS011;7516;43.570;1.448;2023-04-03T07:55:57;4.43;;;2.70;;
14847;SDS011;7516;43.570;1.448;2023-04-03T07:58:25;3.97;;;2.93;;
14847;SDS011;7516;43.570;1.448;2023-04-03T08:00:52;3.57;;;2.43;;
14847;SDS011;7516;43.570;1.448;2023-04-03T08:03:20;3.73;;;2.40;;
14847;SDS011;7516;43.570;1.448;2023-04-03T08:05:48;5.43;;;2.60;;
14847;SDS011;7516;43.570;1.448;2023-04-03T08:08:18;4.27;;;2.63;;
14847;SDS011;7516;43.570;1.448;2023-04-03T08:10:48;4.20;;;2.60;;
14847;SDS011;7516;43.570;1.448;2023-04-03T08:13:16;2.73;;;2.40;;
14847;SDS011;7516;43.570;1.448;2023-04-03T08:15:44;6.00;;;2.90;;
14847;SDS011;7516;43.570;1.448;2023-04-03T08:18:12;4.20;;;2.47;;
14847;SDS011;7516;43.570;1.448;2023-04-03T08:20:40;7.27;;;2.43;;
14847;SDS011;7516;43.570;1.448;2023-04-03T08:23:09;2.87;;;2.30;;
14847;SDS011;7516;43.570;1.448;2023-04-03T08:25:39;5.00;;;2.63;;
14847;SDS011;7516;43.570;1.448;2023-04-03T08:28:07;5.30;;;2.83;;
14847;SDS011;7516;43.570;1.448;2023-04-03T08:30:35;2.97;;;1.97;;
14847;SDS011;7516;43.570;1.448;2023-04-03T08:33:05;4.93;;;2.47;;
14847;SDS011;7516;43.570;1.448;2023-04-03T08:35:33;4.13;;;2.50;;
14847;SDS011;7516;43.570;1.448;2023-04-03T08:38:04;5.73;;;2.70;;
14847;SDS011;7516;43.570;1.448;2023-04-03T08:40:32;4.27;;;2.43;;
14847;SDS011;7516;43.570;1.448;2023-04-03T08:43:03;4.37;;;2.87;;
14847;SDS011;7516;43.570;1.448;2023-04-03T08:45:52;3.53;;;2.50;;
14847;SDS011;7516;43.570;1.448;2023-04-03T08:48:22;4.33;;;2.40;;
14847;SDS011;7516;43.570;1.448;2023-04-03T08:50:55;4.30;;;2.50;;
14847;SDS011;7516;43.570;1.448;2023-04-03T08:53:26;4.70;;;2.77;;
14847;SDS011;7516;43.570;1.448;2023-04-03T08:55:58;4.47;;;2.37;;
14847;SDS011;7516;43.570;1.448;2023-04-03T08:58:33;2.60;;;2.03;;
14847;SDS011;7516;43.570;1.448;2023-04-03T09:01:12;3.83;;;2.40;;
14847;SDS011;7516;43.570;1.448;2023-04-03T09:03:45;3.67;;;2.40;;
14847;SDS011;7516;43.570;1.448;2023-04-03T09:06:13;4.47;;;2.50;;
14847;SDS011;7516;43.570;1.448;2023-04-03T09:08:43;3.87;;;2.77;;
14847;SDS011;7516;43.570;1.448;2023-04-03T09:11:16;5.03;;;2.53;;
14847;SDS011;7516;43.570;1.448;2023-04-03T09:13:54;4.70;;;2.60;;
14847;SDS011;7516;43.570;1.448;2023-04-03T09:16:31;4.03;;;2.60;;
14847;SDS011;7516;43.570;1.448;2023-04-03T09:19:10;3.73;;;2.60;;
14847;SDS011;7516;43.570;1.448;2023-04-03T09:21:44;4.03;;;2.60;;
14847;SDS011;7516;43.570;1.448;2023-04-03T09:24:13;3.80;;;2.50;;
14847;SDS011;7516;43.570;1.448;2023-04-03T09:26:44;3.90;;;2.60;;
14847;SDS011;7516;43.570;1.448;2023-04-03T09:29:17;6.50;;;2.37;;
14847;SDS011;7516;43.570;1.448;2023-04-03T09:31:47;3.30;;;2.30;;
14847;SDS011;7516;43.570;1.448;2023-04-03T09:34:18;2.47;;;1.97;;
14847;SDS011;7516;43.570;1.448;2023-04-03T09:36:49;4.17;;;2.07;;
14847;SDS011;7516;43.570;1.448;2023-04-03T09:39:19;4.40;;;2.37;;
14847;SDS011;7516;43.570;1.448;2023-04-03T09:41:58;3.83;;;2.10;;
14847;SDS011;7516;43.570;1.448;2023-04-03T09:44:29;3.33;;;2.10;;
14847;SDS011;7516;43.570;1.448;2023-04-03T09:46:59;5.13;;;2.50;;
14847;SDS011;7516;43.570;1.448;2023-04-03T09:49:43;5.73;;;2.37;;
14847;SDS011;7516;43.570;1.448;2023-04-03T09:52:17;2.80;;;1.90;;
14847;SDS011;7516;43.570;1.448;2023-04-03T09:54:46;4.30;;;2.20;;
14847;SDS011;7516;43.570;1.448;2023-04-03T09:57:14;3.50;;;2.10;;
14847;SDS011;7516;43.570;1.448;2023-04-03T09:59:46;3.20;;;2.10;;
14847;SDS011;7516;43.570;1.448;2023-04-03T10:02:28;4.03;;;1.90;;
14847;SDS011;7516;43.570;1.448;2023-04-03T10:05:26;4.40;;;1.97;;
14847;SDS011;7516;43.570;1.448;2023-04-03T10:08:19;2.77;;;1.80;;
14847;SDS011;7516;43.570;1.448;2023-04-03T10:11:05;4.07;;;2.00;;
14847;SDS011;7516;43.570;1.448;2023-04-03T10:13:52;4.33;;;1.90;;
14847;SDS011;7516;43.570;1.448;2023-04-03T10:16:24;2.50;;;1.87;;
14847;SDS011;7516;43.570;1.448;2023-04-03T10:18:57;3.23;;;1.90;;
14847;SDS011;7516;43.570;1.448;2023-04-03T10:21:40;3.87;;;1.97;;
14847;SDS011;7516;43.570;1.448;2023-04-03T10:24:13;3.67;;;1.73;;
14847;SDS011;7516;43.570;1.448;2023-04-03T10:26:50;3.33;;;1.90;;
14847;SDS011;7516;43.570;1.448;2023-04-03T10:29:30;5.67;;;2.00;;
14847;SDS011;7516;43.570;1.448;2023-04-03T10:32:11;4.77;;;1.90;;
14847;SDS011;7516;43.570;1.448;2023-04-03T10:34:51;3.93;;;1.90;;
14847;SDS011;7516;43.570;1.448;2023-04-03T10:37:26;4.17;;;2.03;;
14847;SDS011;7516;43.570;1.448;2023-04-03T10:40:02;3.43;;;1.60;;
14847;SDS011;7516;43.570;1.448;2023-04-03T10:42:42;2.97;;;1.57;;
14847;SDS011;7516;43.570;1.448;2023-04-03T10:45:18;3.43;;;1.70;;
14847;SDS011;7516;43.570;1.448;2023-04-03T10:47:54;6.07;;;1.63;;
14847;SDS011;7516;43.570;1.448;2023-04-03T10:50:29;2.00;;;1.30;;
14847;SDS011;7516;43.570;1.448;2023-04-03T10:53:05;2.73;;;1.50;;
14847;SDS011;7516;43.570;1.448;2023-04-03T10:55:41;1.80;;;1.40;;
14847;SDS011;7516;43.570;1.448;2023-04-03T10:58:18;2.23;;;1.47;;
14847;SDS011;7516;43.570;1.448;2023-04-03T11:00:51;2.97;;;1.70;;
14847;SDS011;7516;43.570;1.448;2023-04-03T11:03:29;2.30;;;1.43;;
14847;SDS011;7516;43.570;1.448;2023-04-03T11:06:01;1.97;;;1.50;;
14847;SDS011;7516;43.570;1.448;2023-04-03T11:08:34;3.23;;;1.57;;
14847;SDS011;7516;43.570;1.448;2023-04-03T11:11:05;1.70;;;1.23;;
14847;SDS011;7516;43.570;1.448;2023-04-03T11:13:37;2.93;;;1.27;;
14847;SDS011;7516;43.570;1.448;2023-04-03T11:16:09;2.30;;;1.27;;
14847;SDS011;7516;43.570;1.448;2023-04-03T11:18:49;2.93;;;1.27;;
14847;SDS011;7516;43.570;1.448;2023-04-03T11:21:23;3.03;;;1.53;;
14847;SDS011;7516;43.570;1.448;2023-04-03T11:23:54;2.23;;;1.47;;
14847;SDS011;7516;43.570;1.448;2023-04-03T11:26:24;2.57;;;1.50;;
14847;SDS011;7516;43.570;1.448;2023-04-03T11:28:59;3.27;;;1.63;;
14847;SDS011;7516;43.570;1.448;2023-04-03T11:31:38;2.00;;;1.20;;
14847;SDS011;7516;43.570;1.448;2023-04-03T11:34:23;2.27;;;1.13;;
14847;SDS011;7516;43.570;1.448;2023-04-03T11:36:59;1.87;;;1.20;;
14847;SDS011;7516;43.570;1.448;2023-04-03T11:39:31;2.67;;;1.40;;
14847;SDS011;7516;43.570;1.448;2023-04-03T11:42:13;3.03;;;1.43;;
14847;SDS011;7516;43.570;1.448;2023-04-03T11:44:44;3.10;;;1.70;;
14847;SDS011;7516;43.570;1.448;2023-04-03T11:47:12;2.57;;;1.50;;
14847;SDS011;7516;43.570;1.448;2023-04-03T11:56:00;3.37;;;1.50;;
14847;SDS011;7516;43.570;1.448;2023-04-03T11:58:43;2.77;;;1.40;;
14847;SDS011;7516;43.570;1.448;2023-04-03T12:01:53;2.77;;;1.70;;
14847;SDS011;7516;43.570;1.448;2023-04-03T12:04:25;3.60;;;1.70;;
14847;SDS011;7516;43.570;1.448;2023-04-03T12:12:42;3.77;;;1.73;;
14847;SDS011;7516;43.570;1.448;2023-04-03T12:15:43;3.57;;;1.80;;
14847;SDS011;7516;43.570;1.448;2023-04-03T12:18:40;3.33;;;1.60;;
14847;SDS011;7516;43.570;1.448;2023-04-03T12:21:11;4.50;;;1.80;;
14847;SDS011;7516;43.570;1.448;2023-04-03T12:26:28;3.33;;;1.83;;
14847;SDS011;7516;43.570;1.448;2023-04-03T12:29:01;2.90;;;1.60;;
14847;SDS011;7516;43.570;1.448;2023-04-03T12:31:40;4.30;;;1.87;;
14847;SDS011;7516;43.570;1.448;2023-04-03T12:34:35;3.33;;;1.80;;
14847;SDS011;7516;43.570;1.448;2023-04-03T12:37:17;4.97;;;1.67;;
14847;SDS011;7516;43.570;1.448;2023-04-03T12:40:06;3.10;;;1.40;;
14847;SDS011;7516;43.570;1.448;2023-04-03T12:42:46;2.80;;;1.60;;
14847;SDS011;7516;43.570;1.448;2023-04-03T12:45:36;3.13;;;1.40;;
14847;SDS011;7516;43.570;1.448;2023-04-03T12:48:12;2.73;;;1.60;;
14847;SDS011;7516;43.570;1.448;2023-04-03T12:50:42;2.43;;;1.43;;
14847;SDS011;7516;43.570;1.448;2023-04-03T12:53:13;4.33;;;1.63;;
14847;SDS011;7516;43.570;1.448;2023-04-03T12:55:45;4.33;;;1.23;;
14847;SDS011;7516;43.570;1.448;2023-04-03T12:58:13;3.03;;;1.60;;
14847;SDS011;7516;43.570;1.448;2023-04-03T13:00:43;2.27;;;1.50;;
14847;SDS011;7516;43.570;1.448;2023-04-03T13:03:21;2.83;;;1.40;;
14847;SDS011;7516;43.570;1.448;2023-04-03T13:05:52;3.73;;;1.30;;
14847;SDS011;7516;43.570;1.448;2023-04-03T13:08:21;4.73;;;1.63;;
14847;SDS011;7516;43.570;1.448;2023-04-03T13:10:52;1.83;;;1.17;;
14847;SDS011;7516;43.570;1.448;2023-04-03T13:13:24;2.27;;;1.10;;
14847;SDS011;7516;43.570;1.448;2023-04-03T13:15:52;3.27;;;1.00;;
14847;SDS011;7516;43.570;1.448;2023-04-03T13:18:21;2.07;;;1.10;;
14847;SDS011;7516;43.570;1.448;2023-04-03T13:20:51;2.73;;;1.30;;
14847;SDS011;7516;43.570;1.448;2023-04-03T13:23:20;3.53;;;1.63;;
14847;SDS011;7516;43.570;1.448;2023-04-03T13:25:48;2.90;;;1.33;;
14847;SDS011;7516;43.570;1.448;2023-04-03T13:28:19;1.87;;;1.03;;
14847;SDS011;7516;43.570;1.448;2023-04-03T13:30:56;3.20;;;1.40;;
14847;SDS011;7516;43.570;1.448;2023-04-03T13:33:31;2.90;;;1.40;;
14847;SDS011;7516;43.570;1.448;2023-04-03T13:36:04;2.83;;;1.20;;
14847;SDS011;7516;43.570;1.448;2023-04-03T13:38:34;2.77;;;1.13;;
14847;SDS011;7516;43.570;1.448;2023-04-03T13:41:03;2.50;;;1.40;;
14847;SDS011;7516;43.570;1.448;2023-04-03T13:43:49;3.23;;;1.20;;
14847;SDS011;7516;43.570;1.448;2023-04-03T13:46:24;3.07;;;1.20;;
14847;SDS011;7516;43.570;1.448;2023-04-03T13:48:55;2.80;;;1.30;;
14847;SDS011;7516;43.570;1.448;2023-04-03T13:51:26;2.97;;;1.10;;
14847;SDS011;7516;43.570;1.448;2023-04-03T13:53:56;3.03;;;1.20;;
14847;SDS011;7516;43.570;1.448;2023-04-03T13:56:27;3.30;;;1.60;;
14847;SDS011;7516;43.570;1.448;2023-04-03T13:59:01;2.77;;;1.20;;
14847;SDS011;7516;43.570;1.448;2023-04-03T14:01:38;3.50;;;1.30;;
14847;SDS011;7516;43.570;1.448;2023-04-03T14:04:14;3.57;;;1.50;;
14847;SDS011;7516;43.570;1.448;2023-04-03T14:06:46;3.13;;;1.80;;
14847;SDS011;7516;43.570;1.448;2023-04-03T14:09:15;4.30;;;1.53;;
14847;SDS011;7516;43.570;1.448;2023-04-03T14:11:44;2.80;;;1.33;;
14847;SDS011;7516;43.570;1.448;2023-04-03T14:14:16;2.38;;;1.38;;
14847;SDS011;7516;43.570;1.448;2023-04-03T14:16:46;4.43;;;1.43;;
14847;SDS011;7516;43.570;1.448;2023-04-03T14:19:19;3.30;;;1.40;;
14847;SDS011;7516;43.570;1.448;2023-04-03T14:21:49;3.10;;;1.60;;
14847;SDS011;7516;43.570;1.448;2023-04-03T14:24:17;3.03;;;1.63;;
14847;SDS011;7516;43.570;1.448;2023-04-03T14:26:46;2.80;;;1.80;;
14847;SDS011;7516;43.570;1.448;2023-04-03T14:29:21;5.27;;;2.37;;
14847;SDS011;7516;43.570;1.448;2023-04-03T14:31:49;5.43;;;2.90;;
14847;SDS011;7516;43.570;1.448;2023-04-03T14:34:17;5.60;;;2.43;;
14847;SDS011;7516;43.570;1.448;2023-04-03T14:36:45;3.27;;;1.90;;
14847;SDS011;7516;43.570;1.448;2023-04-03T14:39:15;4.00;;;1.80;;
14847;SDS011;7516;43.570;1.448;2023-04-03T14:41:44;4.20;;;2.00;;
14847;SDS011;7516;43.570;1.448;2023-04-03T14:44:13;4.07;;;1.60;;
14847;SDS011;7516;43.570;1.448;2023-04-03T14:46:43;3.87;;;1.53;;
14847;SDS011;7516;43.570;1.448;2023-04-03T14:49:12;2.77;;;1.47;;
14847;SDS011;7516;43.570;1.448;2023-04-03T14:51:41;5.57;;;2.90;;
14847;SDS011;7516;43.570;1.448;2023-04-03T14:54:11;3.83;;;2.30;;
14847;SDS011;7516;43.570;1.448;2023-04-03T14:56:41;7.73;;;3.40;;
14847;SDS011;7516;43.570;1.448;2023-04-03T14:59:09;3.50;;;2.43;;
14847;SDS011;7516;43.570;1.448;2023-04-03T15:01:39;3.97;;;1.70;;
14847;SDS011;7516;43.570;1.448;2023-04-03T15:04:11;5.20;;;2.03;;
14847;SDS011;7516;43.570;1.448;2023-04-03T15:06:39;4.07;;;1.80;;
14847;SDS011;7516;43.570;1.448;2023-04-03T15:09:10;3.50;;;1.63;;
14847;SDS011;7516;43.570;1.448;2023-04-03T15:11:46;4.17;;;1.87;;
14847;SDS011;7516;43.570;1.448;2023-04-03T15:14:14;5.10;;;2.77;;
14847;SDS011;7516;43.570;1.448;2023-04-03T15:16:42;2.97;;;1.70;;
14847;SDS011;7516;43.570;1.448;2023-04-03T15:19:11;6.13;;;1.80;;
14847;SDS011;7516;43.570;1.448;2023-04-03T15:21:39;3.33;;;1.70;;
14847;SDS011;7516;43.570;1.448;2023-04-03T15:24:08;4.37;;;1.50;;
14847;SDS011;7516;43.570;1.448;2023-04-03T15:26:36;3.83;;;1.40;;
14847;SDS011;7516;43.570;1.448;2023-04-03T15:29:04;5.13;;;1.90;;
14847;SDS011;7516;43.570;1.448;2023-04-03T15:31:32;3.90;;;1.40;;
14847;SDS011;7516;43.570;1.448;2023-04-03T15:34:00;2.70;;;1.50;;
14847;SDS011;7516;43.570;1.448;2023-04-03T15:36:33;2.77;;;1.70;;
14847;SDS011;7516;43.570;1.448;2023-04-03T15:39:00;4.93;;;1.40;;